createdAt,value
2022-12-06T00:01:29.104Z,2.88
2022-12-06T00:03:58.844Z,2.10
2022-12-06T00:06:28.586Z,2.20
2022-12-06T00:08:57.573Z,2.40
2022-12-06T00:11:27.310Z,2.05
2022-12-06T00:13:58.063Z,1.75
2022-12-06T00:16:27.174Z,1.77
2022-12-06T00:18:55.812Z,1.55
2022-12-06T00:21:25.527Z,1.60
2022-12-06T00:23:55.102Z,1.80
2022-12-06T00:26:23.763Z,1.80
2022-12-06T00:28:54.327Z,1.45
2022-12-06T00:31:25.012Z,1.50
2022-12-06T00:33:53.803Z,1.50
2022-12-06T00:36:23.835Z,1.67
2022-12-06T00:38:52.891Z,1.50
2022-12-06T00:41:22.492Z,1.63
2022-12-06T00:43:51.297Z,1.40
2022-12-06T00:46:20.761Z,1.88
2022-12-06T00:48:51.568Z,1.60
2022-12-06T00:51:20.825Z,1.80
2022-12-06T00:53:49.743Z,1.40
2022-12-06T00:56:18.829Z,1.83
2022-12-06T00:58:47.967Z,1.58
2022-12-06T01:01:17.597Z,1.55
2022-12-06T01:03:47.018Z,1.55
2022-12-06T01:06:17.679Z,1.42
2022-12-06T01:08:46.299Z,1.63
2022-12-06T01:11:16.438Z,1.90
2022-12-06T01:13:45.543Z,1.80
2022-12-06T01:16:15.004Z,1.42
2022-12-06T01:18:44.366Z,1.90
2022-12-06T01:21:14.255Z,1.80
2022-12-06T01:23:44.483Z,1.73
2022-12-06T01:26:16.803Z,1.80
2022-12-06T01:28:45.441Z,1.75
2022-12-06T01:31:14.978Z,1.98
2022-12-06T01:33:43.792Z,1.92
2022-12-06T01:36:17.603Z,1.70
2022-12-06T01:38:50.462Z,2.05
2022-12-06T01:41:19.299Z,1.80
2022-12-06T01:43:48.851Z,1.80
2022-12-06T01:46:22.202Z,1.90
2022-12-06T01:48:52.187Z,2.10
2022-12-06T01:51:20.944Z,1.80
2022-12-06T01:53:51.584Z,1.52
2022-12-06T01:56:20.606Z,1.70
2022-12-06T01:58:50.350Z,1.88
2022-12-06T02:01:19.052Z,1.85
2022-12-06T02:03:48.243Z,1.65
2022-12-06T02:06:17.431Z,2.15
2022-12-06T02:08:46.289Z,2.00
2022-12-06T02:11:16.325Z,2.00
2022-12-06T02:13:45.022Z,2.20
2022-12-06T02:16:19.127Z,2.22
2022-12-06T02:18:50.154Z,1.88
2022-12-06T02:21:22.947Z,2.00
2022-12-06T02:24:02.979Z,1.77
2022-12-06T02:26:38.249Z,1.80
2022-12-06T02:29:23.904Z,1.75
2022-12-06T02:31:58.227Z,1.88
2022-12-06T02:34:31.637Z,2.35
2022-12-06T02:37:03.007Z,2.10
2022-12-06T02:39:35.735Z,2.28
2022-12-06T02:42:06.134Z,1.88
2022-12-06T02:44:36.753Z,1.92
2022-12-06T02:47:08.299Z,2.35
2022-12-06T02:49:38.441Z,2.33
2022-12-06T02:52:07.391Z,2.10
2022-12-06T02:54:36.121Z,2.15
2022-12-06T02:57:04.667Z,2.13
2022-12-06T02:59:33.287Z,1.98
2022-12-06T03:02:03.558Z,2.20
2022-12-06T03:04:49.590Z,2.25
2022-12-06T03:07:27.747Z,2.53
2022-12-06T03:10:00.762Z,2.45
2022-12-06T03:12:32.617Z,2.47
2022-12-06T03:15:07.280Z,2.40
2022-12-06T03:17:38.701Z,2.33
2022-12-06T03:20:12.136Z,2.80
2022-12-06T03:22:42.169Z,2.55
2022-12-06T03:25:12.102Z,2.58
2022-12-06T03:27:41.500Z,2.20
2022-12-06T03:30:12.870Z,2.83
2022-12-06T03:32:43.539Z,2.38
2022-12-06T03:35:14.750Z,2.60
2022-12-06T03:37:44.701Z,2.80
2022-12-06T03:40:18.610Z,2.95
2022-12-06T03:42:47.679Z,2.83
2022-12-06T03:45:16.478Z,2.83
2022-12-06T03:47:49.107Z,3.38
2022-12-06T03:50:21.193Z,3.10
2022-12-06T03:52:49.954Z,3.30
2022-12-06T03:55:18.547Z,3.25
2022-12-06T03:57:47.217Z,3.63
2022-12-06T04:00:16.677Z,3.03
2022-12-06T04:02:45.366Z,3.15
2022-12-06T04:05:14.479Z,3.10
2022-12-06T04:07:44.528Z,3.28
2022-12-06T04:10:13.450Z,3.38
2022-12-06T04:12:59.635Z,3.78
2022-12-06T04:15:28.794Z,3.60
2022-12-06T04:18:13.501Z,3.38
2022-12-06T04:21:00.720Z,3.70
2022-12-06T04:23:30.930Z,3.08
2022-12-06T04:25:59.531Z,3.08
2022-12-06T04:28:45.615Z,3.22
2022-12-06T04:31:31.935Z,2.90
2022-12-06T04:34:18.009Z,2.88
2022-12-06T04:37:04.653Z,3.38
2022-12-06T04:39:34.635Z,3.03
2022-12-06T04:42:21.207Z,2.83
2022-12-06T04:44:49.912Z,2.92
2022-12-06T04:47:18.526Z,3.15
2022-12-06T04:49:47.130Z,3.08
2022-12-06T04:52:15.962Z,3.35
2022-12-06T04:54:47.278Z,3.50
2022-12-06T04:57:16.776Z,2.75
2022-12-06T04:59:46.361Z,3.20
2022-12-06T05:02:16.180Z,3.38
2022-12-06T05:04:44.779Z,3.00
2022-12-06T05:07:13.512Z,3.55
2022-12-06T05:09:42.101Z,3.63
2022-12-06T05:12:12.127Z,2.90
2022-12-06T05:14:40.731Z,3.60
2022-12-06T05:17:09.294Z,3.00
2022-12-06T05:19:37.942Z,3.13
2022-12-06T05:22:06.603Z,3.00
2022-12-06T05:24:35.203Z,2.80
2022-12-06T05:27:03.839Z,3.17
2022-12-06T05:29:33.955Z,3.45
2022-12-06T05:32:02.626Z,3.38
2022-12-06T05:34:31.293Z,2.88
2022-12-06T05:36:59.897Z,2.97
2022-12-06T05:39:29.375Z,3.33
2022-12-06T05:41:58.007Z,3.40
2022-12-06T05:44:26.554Z,2.95
2022-12-06T05:46:56.520Z,3.22
2022-12-06T05:49:25.080Z,3.03
2022-12-06T05:51:53.647Z,3.00
2022-12-06T05:54:22.359Z,3.42
2022-12-06T05:56:51.332Z,2.88
2022-12-06T05:59:19.941Z,3.15
2022-12-06T06:01:48.537Z,3.75
2022-12-06T06:04:18.544Z,2.72
2022-12-06T06:06:47.163Z,3.20
2022-12-06T06:09:15.746Z,3.40
2022-12-06T06:11:44.326Z,3.10
2022-12-06T06:14:12.872Z,3.20
2022-12-06T06:16:41.521Z,3.03
2022-12-06T06:19:10.206Z,2.70
2022-12-06T06:21:40.179Z,3.00
2022-12-06T06:24:09.220Z,2.80
2022-12-06T06:26:37.776Z,3.10
2022-12-06T06:29:06.366Z,3.00
2022-12-06T06:31:35.217Z,2.97
2022-12-06T06:34:03.916Z,3.20
2022-12-06T06:36:32.571Z,3.20
2022-12-06T06:39:02.604Z,2.88
2022-12-06T06:41:31.247Z,2.75
2022-12-06T06:43:59.812Z,2.92
2022-12-06T06:46:28.457Z,2.47
2022-12-06T06:48:57.187Z,3.05
2022-12-06T06:51:25.858Z,2.60
2022-12-06T06:53:54.396Z,3.05
2022-12-06T06:56:24.540Z,2.67
2022-12-06T06:58:53.307Z,2.38
2022-12-06T07:01:23.269Z,2.38
2022-12-06T07:03:52.279Z,2.85
2022-12-06T07:06:20.888Z,2.92
2022-12-06T07:08:49.531Z,2.42
2022-12-06T07:11:18.199Z,2.17
2022-12-06T07:13:52.531Z,2.65
2022-12-06T07:16:21.535Z,2.28
2022-12-06T07:18:50.353Z,2.08
2022-12-06T07:21:19.273Z,2.10
2022-12-06T07:23:47.921Z,2.22
2022-12-06T07:26:17.343Z,2.20
2022-12-06T07:28:47.014Z,2.15
2022-12-06T07:31:18.084Z,2.22
2022-12-06T07:33:47.299Z,2.28
2022-12-06T07:36:16.328Z,2.42
2022-12-06T07:38:46.669Z,2.63
2022-12-06T07:41:32.813Z,2.35
2022-12-06T07:44:20.295Z,2.10
2022-12-06T07:46:50.462Z,2.85
2022-12-06T07:49:20.105Z,2.38
2022-12-06T07:51:48.996Z,2.17
2022-12-06T07:54:18.060Z,2.22
2022-12-06T07:56:46.955Z,2.60
2022-12-06T07:59:15.815Z,2.30
2022-12-06T08:01:44.827Z,2.58
2022-12-06T08:04:14.855Z,2.60
2022-12-06T08:06:43.530Z,2.70
2022-12-06T08:09:12.282Z,2.63
2022-12-06T08:11:41.042Z,2.97
2022-12-06T08:14:09.615Z,2.40
2022-12-06T08:16:38.228Z,2.47
2022-12-06T08:19:06.813Z,2.92
2022-12-06T08:21:36.825Z,2.63
2022-12-06T08:24:05.551Z,2.55
2022-12-06T08:26:34.143Z,2.65
2022-12-06T08:29:03.391Z,2.63
2022-12-06T08:31:34.672Z,2.17
2022-12-06T08:34:03.368Z,2.33
2022-12-06T08:36:33.491Z,2.33
2022-12-06T08:39:03.492Z,2.20
2022-12-06T08:41:49.716Z,2.42
2022-12-06T08:44:18.986Z,2.30
2022-12-06T08:46:48.025Z,2.10
2022-12-06T08:49:17.190Z,2.60
2022-12-06T08:51:45.808Z,2.40
2022-12-06T08:54:17.615Z,2.28
2022-12-06T08:56:46.420Z,2.35
2022-12-06T08:59:15.265Z,2.70
2022-12-06T09:01:44.476Z,2.35
2022-12-06T09:04:13.610Z,2.20
2022-12-06T09:06:43.220Z,2.10
2022-12-06T09:09:12.228Z,2.17
2022-12-06T09:11:42.615Z,2.10
2022-12-06T09:14:17.859Z,2.40
2022-12-06T09:16:49.987Z,2.40
2022-12-06T09:19:18.930Z,2.33
2022-12-06T09:21:47.592Z,1.90
2022-12-06T09:24:17.616Z,2.20
2022-12-06T09:26:47.581Z,2.08
2022-12-06T09:29:16.393Z,2.17
2022-12-06T09:31:45.036Z,1.80
2022-12-06T09:34:14.207Z,2.15
2022-12-06T09:36:45.156Z,1.98
2022-12-06T09:39:16.231Z,2.05
2022-12-06T09:41:58.247Z,2.58
2022-12-06T09:44:32.779Z,2.00
2022-12-06T09:47:09.281Z,2.00
2022-12-06T09:49:40.745Z,1.85
2022-12-06T09:52:33.084Z,1.55
2022-12-06T09:55:16.539Z,1.70
2022-12-06T09:57:49.119Z,2.00
2022-12-06T10:00:22.872Z,1.98
2022-12-06T10:03:02.112Z,2.00
2022-12-06T10:05:35.349Z,1.65
2022-12-06T10:08:08.863Z,1.58
2022-12-06T10:10:41.263Z,1.75
2022-12-06T10:13:13.907Z,1.75
2022-12-06T10:15:48.481Z,1.90
2022-12-06T10:18:29.704Z,1.83
2022-12-06T10:21:01.523Z,1.67
2022-12-06T10:23:35.072Z,1.63
2022-12-06T10:26:07.467Z,1.77
2022-12-06T10:28:42.753Z,2.13
2022-12-06T10:31:17.196Z,1.90
2022-12-06T10:33:49.634Z,2.13
2022-12-06T10:36:19.800Z,1.70
2022-12-06T10:38:52.374Z,1.60
2022-12-06T10:41:24.388Z,1.85
2022-12-06T10:43:56.560Z,1.70
2022-12-06T10:46:46.442Z,1.70
2022-12-06T10:49:18.680Z,2.20
2022-12-06T10:51:50.681Z,2.00
2022-12-06T10:54:24.635Z,2.00
2022-12-06T10:56:55.664Z,1.73
2022-12-06T10:59:34.418Z,1.90
2022-12-06T11:02:06.154Z,1.80
2022-12-06T11:04:36.970Z,2.00
2022-12-06T11:07:10.056Z,1.63
2022-12-06T11:09:40.923Z,1.50
2022-12-06T11:12:19.324Z,1.65
2022-12-06T11:14:51.043Z,2.10
2022-12-06T11:17:21.522Z,2.03
2022-12-06T11:19:51.629Z,2.00
2022-12-06T11:22:24.642Z,1.77
2022-12-06T11:24:57.280Z,1.58
2022-12-06T11:27:32.108Z,2.28
2022-12-06T11:30:03.791Z,1.95
2022-12-06T11:32:32.705Z,1.90
2022-12-06T11:35:02.526Z,1.75
2022-12-06T11:37:33.704Z,1.80
2022-12-06T11:40:07.488Z,2.10
2022-12-06T11:42:36.178Z,2.40
2022-12-06T11:45:08.858Z,2.20
2022-12-06T11:47:37.603Z,1.70
2022-12-06T11:50:10.946Z,2.15
2022-12-06T11:52:44.667Z,1.98
2022-12-06T11:55:17.115Z,1.80
2022-12-06T11:57:48.363Z,1.80
2022-12-06T12:00:20.973Z,1.90
2022-12-06T12:02:50.649Z,2.10
2022-12-06T12:05:23.158Z,1.83
2022-12-06T12:07:54.059Z,1.88
2022-12-06T12:10:36.710Z,1.75
2022-12-06T12:13:38.247Z,1.77
2022-12-06T12:16:13.925Z,1.60
2022-12-06T12:18:44.919Z,2.20
2022-12-06T12:21:13.660Z,2.00
2022-12-06T12:23:45.747Z,1.90
2022-12-06T12:26:15.866Z,1.92
2022-12-06T12:28:45.007Z,2.22
2022-12-06T12:31:19.534Z,1.80
2022-12-06T12:33:48.581Z,2.08
2022-12-06T12:36:19.059Z,2.00
2022-12-06T12:38:52.455Z,1.48
2022-12-06T12:41:26.147Z,1.90
2022-12-06T12:44:28.470Z,2.03
2022-12-06T12:46:50.966Z,2.13
2022-12-06T12:49:24.470Z,2.00
2022-12-06T12:51:53.497Z,2.25
2022-12-06T12:54:23.992Z,2.15
2022-12-06T12:56:52.728Z,1.88
2022-12-06T12:59:22.732Z,2.20
2022-12-06T13:01:54.386Z,1.80
2022-12-06T13:04:33.490Z,1.80
2022-12-06T13:07:04.188Z,1.80
2022-12-06T13:09:34.636Z,2.03
2022-12-06T13:12:05.054Z,1.70
2022-12-06T13:14:34.996Z,1.98
2022-12-06T13:17:08.683Z,1.90
2022-12-06T13:19:40.564Z,1.73
2022-12-06T13:22:13.645Z,1.55
2022-12-06T13:24:45.035Z,1.90
2022-12-06T13:27:16.502Z,1.80
2022-12-06T13:29:47.629Z,2.10
2022-12-06T13:32:18.626Z,2.17
2022-12-06T13:34:50.798Z,2.00
2022-12-06T13:37:35.245Z,1.85
2022-12-06T13:40:04.569Z,2.40
2022-12-06T13:42:45.483Z,2.40
2022-12-06T13:45:31.979Z,2.15
2022-12-06T13:48:02.056Z,2.03
2022-12-06T13:50:45.449Z,2.10
2022-12-06T13:53:14.107Z,2.03
2022-12-06T13:55:57.700Z,2.05
2022-12-06T13:58:44.834Z,1.75
2022-12-06T14:01:28.376Z,2.05
2022-12-06T14:03:58.400Z,1.60
2022-12-06T14:06:41.863Z,2.20
2022-12-06T14:09:11.525Z,2.30
2022-12-06T14:11:40.247Z,1.90
2022-12-06T14:14:15.783Z,1.92
2022-12-06T14:16:46.350Z,2.13
2022-12-06T14:19:18.224Z,2.20
2022-12-06T14:21:53.986Z,2.33
2022-12-06T14:24:30.248Z,2.13
2022-12-06T14:27:04.612Z,2.17
2022-12-06T14:29:33.429Z,1.98
2022-12-06T14:32:02.006Z,2.78
2022-12-06T14:34:33.113Z,2.05
2022-12-06T14:37:03.425Z,1.83
2022-12-06T14:39:32.859Z,2.15
2022-12-06T14:42:20.167Z,2.00
2022-12-06T14:44:49.828Z,1.70
2022-12-06T14:47:19.420Z,2.05
2022-12-06T14:50:11.096Z,2.50
2022-12-06T14:52:56.390Z,2.10
2022-12-06T14:55:25.125Z,2.00
2022-12-06T14:57:57.144Z,2.42
2022-12-06T15:00:28.234Z,2.08
2022-12-06T15:03:01.814Z,2.75
2022-12-06T15:05:39.641Z,2.00
2022-12-06T15:08:22.184Z,2.10
2022-12-06T15:11:00.800Z,2.60
2022-12-06T15:13:28.504Z,2.08
2022-12-06T15:16:13.129Z,2.17
2022-12-06T15:18:42.335Z,4.68
2022-12-06T15:21:14.399Z,2.80
2022-12-06T15:23:48.897Z,2.35
2022-12-06T15:26:17.534Z,2.20
2022-12-06T15:28:46.179Z,1.98
2022-12-06T15:31:18.330Z,1.88
2022-12-06T15:33:47.051Z,1.70
2022-12-06T15:36:19.890Z,1.88
2022-12-06T15:38:48.620Z,2.50
2022-12-06T15:41:18.803Z,2.13
2022-12-06T15:43:47.700Z,2.28
2022-12-06T15:46:19.011Z,2.08
2022-12-06T15:48:47.946Z,2.22
2022-12-06T15:51:21.097Z,1.90
2022-12-06T15:53:51.300Z,1.63
2022-12-06T15:56:20.810Z,1.90
2022-12-06T15:58:49.466Z,2.15
2022-12-06T16:01:19.640Z,1.63
2022-12-06T16:03:48.365Z,2.08
2022-12-06T16:06:19.565Z,1.67
2022-12-06T16:08:48.172Z,2.08
2022-12-06T16:11:18.371Z,1.60
2022-12-06T16:13:47.386Z,1.75
2022-12-06T16:16:19.524Z,1.80
2022-12-06T16:18:48.488Z,1.65
2022-12-06T16:21:21.845Z,1.60
2022-12-06T16:24:17.462Z,2.00
2022-12-06T16:26:46.261Z,2.00
2022-12-06T16:29:15.926Z,1.88
2022-12-06T16:31:44.650Z,2.55
2022-12-06T16:34:13.787Z,2.17
2022-12-06T16:37:00.692Z,2.35
2022-12-06T16:39:30.382Z,1.80
2022-12-06T16:41:59.121Z,1.75
2022-12-06T16:44:27.667Z,1.92
2022-12-06T16:46:56.294Z,1.80
2022-12-06T16:52:15.422Z,2.58
2022-12-06T16:54:44.110Z,2.20
2022-12-06T16:57:13.274Z,2.13
2022-12-06T16:59:42.805Z,2.10
2022-12-06T17:02:21.024Z,2.20
2022-12-06T17:04:49.639Z,1.55
2022-12-06T17:07:19.660Z,3.20
2022-12-06T17:09:48.258Z,2.20
2022-12-06T17:12:16.822Z,1.77
2022-12-06T17:14:45.962Z,2.08
2022-12-06T17:17:15.082Z,2.33
2022-12-06T17:19:44.418Z,2.28
2022-12-06T17:22:13.634Z,1.98
2022-12-06T17:24:43.807Z,2.28
2022-12-06T17:27:14.756Z,2.00
2022-12-06T17:29:44.060Z,1.98
2022-12-06T17:32:12.692Z,1.50
2022-12-06T17:34:41.398Z,1.88
2022-12-06T17:37:10.127Z,2.22
2022-12-06T17:39:38.760Z,1.60
2022-12-06T17:42:26.235Z,2.05
2022-12-06T17:44:54.811Z,1.67
2022-12-06T17:47:23.584Z,2.17
2022-12-06T17:49:52.816Z,1.85
2022-12-06T17:52:21.465Z,2.03
2022-12-06T17:54:50.053Z,2.13
2022-12-06T17:57:20.001Z,1.92
2022-12-06T17:59:49.800Z,1.90
2022-12-06T18:02:20.087Z,1.92
2022-12-06T18:04:49.025Z,2.00
2022-12-06T18:07:18.332Z,2.90
2022-12-06T18:09:47.183Z,3.13
2022-12-06T18:12:16.763Z,2.55
2022-12-06T18:14:47.160Z,2.53
2022-12-06T18:17:15.851Z,2.28
2022-12-06T18:19:46.834Z,2.03
2022-12-06T18:22:15.864Z,2.15
2022-12-06T18:24:44.917Z,2.17
2022-12-06T18:27:13.692Z,2.40
2022-12-06T18:29:42.264Z,2.78
2022-12-06T18:32:12.322Z,2.05
2022-12-06T18:34:40.986Z,2.00
2022-12-06T18:37:09.549Z,2.10
2022-12-06T18:39:38.143Z,2.53
2022-12-06T18:42:06.935Z,2.05
2022-12-06T18:44:35.539Z,2.33
2022-12-06T18:47:04.182Z,2.03
2022-12-06T18:49:34.337Z,2.17
2022-12-06T18:52:02.923Z,2.45
2022-12-06T18:54:31.481Z,2.08
2022-12-06T18:57:00.274Z,2.25
2022-12-06T18:59:29.407Z,2.25
2022-12-06T19:01:58.243Z,2.13
2022-12-06T19:04:26.890Z,2.25
2022-12-06T19:06:57.063Z,2.60
2022-12-06T19:09:25.687Z,2.25
2022-12-06T19:11:54.291Z,2.67
2022-12-06T19:14:23.268Z,2.38
2022-12-06T19:16:53.163Z,2.15
2022-12-06T19:19:22.747Z,2.60
2022-12-06T19:21:52.022Z,2.55
2022-12-06T19:24:22.561Z,2.67
2022-12-06T19:26:52.378Z,2.15
2022-12-06T19:29:21.067Z,2.63
2022-12-06T19:31:49.778Z,2.40
2022-12-06T19:34:19.230Z,2.13
2022-12-06T19:36:47.865Z,2.13
2022-12-06T19:39:17.884Z,2.45
2022-12-06T19:42:05.682Z,2.60
2022-12-06T19:44:34.475Z,2.63
2022-12-06T19:47:03.070Z,2.83
2022-12-06T19:49:31.779Z,2.47
2022-12-06T19:52:00.383Z,2.38
2022-12-06T19:54:29.839Z,2.47
2022-12-06T19:57:00.586Z,2.53
2022-12-06T19:59:29.778Z,2.10
2022-12-06T20:01:59.240Z,2.50
2022-12-06T20:04:28.710Z,2.13
2022-12-06T20:06:57.758Z,2.67
2022-12-06T20:09:27.991Z,2.30
2022-12-06T20:12:03.623Z,1.70
2022-12-06T20:14:35.975Z,2.75
2022-12-06T20:17:05.283Z,2.15
2022-12-06T20:19:34.314Z,2.25
2022-12-06T20:22:02.962Z,2.33
2022-12-06T20:24:31.892Z,2.20
2022-12-06T20:27:00.545Z,2.50
2022-12-06T20:29:30.198Z,2.70
2022-12-06T20:32:00.658Z,2.25
2022-12-06T20:34:32.884Z,2.35
2022-12-06T20:37:02.276Z,2.22
2022-12-06T20:39:32.760Z,2.55
2022-12-06T20:42:03.299Z,2.53
2022-12-06T20:44:32.239Z,2.50
2022-12-06T20:47:02.290Z,2.17
2022-12-06T20:49:31.016Z,2.70
2022-12-06T20:52:02.148Z,2.25
2022-12-06T20:54:31.022Z,2.67
2022-12-06T20:56:59.687Z,2.13
2022-12-06T20:59:29.558Z,2.28
2022-12-06T21:01:58.318Z,2.60
2022-12-06T21:04:28.271Z,2.45
2022-12-06T21:06:56.973Z,2.42
2022-12-06T21:09:25.713Z,2.13
2022-12-06T21:11:54.407Z,2.22
2022-12-06T21:14:23.256Z,2.08
2022-12-06T21:16:51.866Z,2.60
2022-12-06T21:19:21.724Z,2.72
2022-12-06T21:21:53.331Z,2.45
2022-12-06T21:24:22.849Z,2.72
2022-12-06T21:26:51.504Z,2.70
2022-12-06T21:29:26.627Z,3.25
2022-12-06T21:31:58.569Z,2.28
2022-12-06T21:34:27.184Z,2.83
2022-12-06T21:36:57.151Z,2.97
2022-12-06T21:39:25.697Z,2.75
2022-12-06T21:41:54.828Z,2.40
2022-12-06T21:44:23.906Z,3.25
2022-12-06T21:46:53.338Z,3.15
2022-12-06T21:49:22.185Z,2.95
2022-12-06T21:51:55.057Z,2.33
2022-12-06T21:54:28.594Z,2.63
2022-12-06T21:56:58.693Z,2.95
2022-12-06T21:59:27.295Z,2.97
2022-12-06T22:01:55.988Z,2.95
2022-12-06T22:04:24.641Z,2.67
2022-12-06T22:06:53.255Z,2.90
2022-12-06T22:09:21.923Z,2.92
2022-12-06T22:11:52.190Z,3.25
2022-12-06T22:14:20.750Z,2.72
2022-12-06T22:16:50.916Z,3.22
2022-12-06T22:19:19.558Z,3.65
2022-12-06T22:21:48.558Z,3.58
2022-12-06T22:24:17.151Z,3.55
2022-12-06T22:26:45.755Z,3.28
2022-12-06T22:29:15.730Z,3.08
2022-12-06T22:31:44.499Z,2.85
2022-12-06T22:34:13.289Z,2.80
2022-12-06T22:36:42.087Z,3.20
2022-12-06T22:39:10.702Z,2.78
2022-12-06T22:41:39.445Z,3.05
2022-12-06T22:44:08.673Z,2.65
2022-12-06T22:46:38.838Z,2.80
2022-12-06T22:49:07.899Z,3.53
2022-12-06T22:51:40.431Z,2.97
2022-12-06T22:54:11.277Z,2.88
2022-12-06T22:56:41.193Z,3.55
2022-12-06T22:59:11.083Z,3.45
2022-12-06T23:01:41.216Z,3.92
2022-12-06T23:04:10.104Z,2.83
2022-12-06T23:06:38.763Z,3.40
2022-12-06T23:09:07.469Z,2.92
2022-12-06T23:11:37.186Z,3.00
2022-12-06T23:14:07.608Z,3.17
2022-12-06T23:16:36.377Z,2.72
2022-12-06T23:19:06.732Z,2.75
2022-12-06T23:21:36.193Z,2.20
2022-12-06T23:24:06.215Z,2.78
2022-12-06T23:26:35.758Z,2.17
2022-12-06T23:29:04.752Z,2.63
2022-12-06T23:31:34.655Z,2.25
2022-12-06T23:34:03.942Z,2.28
2022-12-06T23:36:35.212Z,2.15
2022-12-06T23:39:04.342Z,1.90
2022-12-06T23:41:33.608Z,2.42
2022-12-06T23:44:02.576Z,2.33
2022-12-06T23:46:32.182Z,2.10
2022-12-06T23:49:01.051Z,2.53
2022-12-06T23:51:30.793Z,2.05
2022-12-06T23:54:01.134Z,2.00
2022-12-06T23:56:31.726Z,2.30
2022-12-06T23:59:00.946Z,2.30
